METAR Data
IDs: Format: Raw Decoded Include TAF

Data at: 1628 UTC 24 Aug 2019

TJSJ 241556Z 07015KT 10SM FEW034 SCT110 32/26 A3005 RMK AO2 SLP175 VCSH SW T03170256 $